Overview Statistics Trail Chart Weather Telemetry Raw packets
 

This is the latest recevied weather packets stored in our database for station/object DM8MH-13. If no packets are shown the sender has not sent any weather packets the latest 10 day(s).

<< 26 27 28 29 30 31 32 >>
Time Temp. Humidity Pressure Rain* Wind** Luminosity Snow
1788192072 23.89° C 54% 1011.2 hPa 0 mm - 72 W/m² -
1788191472 23.89° C 53% 1011.1 hPa 0 mm - 353 W/m² -
1788190871 23.33° C 54% 1011.2 hPa 0 mm - 163 W/m² -
1788190271 23.89° C 55% 1011.4 hPa 0 mm - 132 W/m² -
1788189671 24.44° C 53% 1011.2 hPa 0 mm - 270 W/m² -
1788189071 24.44° C 53% 1011.3 hPa 0 mm - 199 W/m² -
1788188472 24.44° C 54% 1011.1 hPa 0 mm - 490 W/m² -
1788187872 23.89° C 54% 1011.1 hPa 0 mm - 211 W/m² -
1788187271 23.33° C 56% 1011.2 hPa 0 mm - 506 W/m² -
1788186671 22.78° C 62% 1011.1 hPa 0 mm - 265 W/m² -
1788186071 23.33° C 59% 1011.4 hPa 0 mm - 204 W/m² -
1788185470 23.89° C 54% 1011.3 hPa 0 mm - 156 W/m² -
1788184872 23.89° C 54% 1011.3 hPa 0 mm - 251 W/m² -
1788184272 23.89° C 55% 1011.4 hPa 0 mm - 197 W/m² -
1788183671 24.44° C 55% 1011.3 hPa 0 mm - 645 W/m² -
1788183071 24.44° C 56% 1011.3 hPa 0 mm - 529 W/m² -
1788182471 23.89° C 55% 1011.6 hPa 0 mm - 501 W/m² -
1788181871 24.44° C 54% 1011.6 hPa 0 mm - 607 W/m² -
1788181271 23.89° C 54% 1011.6 hPa 0 mm - 827 W/m² -
1788180672 23.89° C 54% 1011.6 hPa 0 mm - 189 W/m² -
1788180071 24.44° C 53% 1011.6 hPa 0 mm - 304 W/m² -
1788179471 23.89° C 55% 1011.6 hPa 0 mm - 722 W/m² -
1788178871 23.33° C 59% 1011.6 hPa 0 mm - 675 W/m² -
1788178271 23.33° C 59% 1011.5 hPa 0 mm - 263 W/m² -
1788177671 23.33° C 59% 1011.6 hPa 0.25 mm - 810 W/m² -

* Rain latest hour (hover to see other rain measurements)
** Current wind speed in m/s (hover to see current wind gust speed)